sensor_id;sensor_type;location;lat;lon;timestamp;P1;durP1;ratioP1;P2;durP2;ratioP2
10399;SDS011;10031;51.180;17.168;2023-03-01T00:01:59;101.30;;;41.37;;
10399;SDS011;10031;51.180;17.168;2023-03-01T00:04:26;95.83;;;39.80;;
10399;SDS011;10031;51.180;17.168;2023-03-01T00:06:53;93.63;;;38.40;;
10399;SDS011;10031;51.180;17.168;2023-03-01T00:12:10;98.83;;;37.70;;
10399;SDS011;10031;51.180;17.168;2023-03-01T00:17:37;109.13;;;41.23;;
10399;SDS011;10031;51.180;17.168;2023-03-01T00:20:03;96.87;;;39.73;;
10399;SDS011;10031;51.180;17.168;2023-03-01T00:22:33;84.43;;;36.93;;
10399;SDS011;10031;51.180;17.168;2023-03-01T00:25:03;85.00;;;37.17;;
10399;SDS011;10031;51.180;17.168;2023-03-01T00:27:30;92.70;;;37.03;;
10399;SDS011;10031;51.180;17.168;2023-03-01T00:29:58;84.33;;;36.77;;
10399;SDS011;10031;51.180;17.168;2023-03-01T00:32:25;92.83;;;37.03;;
10399;SDS011;10031;51.180;17.168;2023-03-01T00:35:08;92.43;;;37.30;;
10399;SDS011;10031;51.180;17.168;2023-03-01T00:37:34;80.73;;;35.93;;
10399;SDS011;10031;51.180;17.168;2023-03-01T00:40:00;100.23;;;37.30;;
10399;SDS011;10031;51.180;17.168;2023-03-01T00:44:57;88.70;;;35.93;;
10399;SDS011;10031;51.180;17.168;2023-03-01T00:47:24;79.40;;;35.50;;
10399;SDS011;10031;51.180;17.168;2023-03-01T00:49:54;82.10;;;35.17;;
10399;SDS011;10031;51.180;17.168;2023-03-01T00:52:21;86.77;;;36.87;;
10399;SDS011;10031;51.180;17.168;2023-03-01T00:54:51;91.40;;;36.73;;
10399;SDS011;10031;51.180;17.168;2023-03-01T00:57:17;71.37;;;32.80;;
10399;SDS011;10031;51.180;17.168;2023-03-01T00:59:45;85.10;;;36.00;;
10399;SDS011;10031;51.180;17.168;2023-03-01T01:02:13;83.00;;;36.07;;
10399;SDS011;10031;51.180;17.168;2023-03-01T01:04:42;79.17;;;36.90;;
10399;SDS011;10031;51.180;17.168;2023-03-01T01:07:09;85.00;;;37.07;;
10399;SDS011;10031;51.180;17.168;2023-03-01T01:09:36;74.60;;;33.90;;
10399;SDS011;10031;51.180;17.168;2023-03-01T01:12:07;84.23;;;34.43;;
10399;SDS011;10031;51.180;17.168;2023-03-01T01:14:44;78.53;;;33.50;;
10399;SDS011;10031;51.180;17.168;2023-03-01T01:17:13;80.97;;;35.33;;
10399;SDS011;10031;51.180;17.168;2023-03-01T01:19:39;84.20;;;33.50;;
10399;SDS011;10031;51.180;17.168;2023-03-01T01:22:05;81.07;;;34.10;;
10399;SDS011;10031;51.180;17.168;2023-03-01T01:24:31;79.13;;;35.00;;
10399;SDS011;10031;51.180;17.168;2023-03-01T01:26:57;86.63;;;35.47;;
10399;SDS011;10031;51.180;17.168;2023-03-01T01:29:23;78.50;;;34.70;;
10399;SDS011;10031;51.180;17.168;2023-03-01T01:31:49;72.97;;;34.23;;
10399;SDS011;10031;51.180;17.168;2023-03-01T01:34:17;83.10;;;36.03;;
10399;SDS011;10031;51.180;17.168;2023-03-01T01:36:43;79.07;;;33.03;;
10399;SDS011;10031;51.180;17.168;2023-03-01T01:39:09;82.00;;;34.40;;
10399;SDS011;10031;51.180;17.168;2023-03-01T01:41:39;80.77;;;34.93;;
10399;SDS011;10031;51.180;17.168;2023-03-01T01:52:05;71.83;;;31.60;;
10399;SDS011;10031;51.180;17.168;2023-03-01T01:54:38;73.60;;;32.07;;
10399;SDS011;10031;51.180;17.168;2023-03-01T01:57:06;76.67;;;32.50;;
10399;SDS011;10031;51.180;17.168;2023-03-01T01:59:33;78.73;;;33.67;;
10399;SDS011;10031;51.180;17.168;2023-03-01T02:02:00;76.10;;;33.40;;
10399;SDS011;10031;51.180;17.168;2023-03-01T02:04:28;80.57;;;33.70;;
10399;SDS011;10031;51.180;17.168;2023-03-01T02:06:57;78.93;;;34.37;;
10399;SDS011;10031;51.180;17.168;2023-03-01T02:09:25;72.53;;;32.57;;
10399;SDS011;10031;51.180;17.168;2023-03-01T02:11:52;68.03;;;33.20;;
10399;SDS011;10031;51.180;17.168;2023-03-01T02:14:19;72.83;;;30.90;;
10399;SDS011;10031;51.180;17.168;2023-03-01T02:16:45;70.37;;;32.30;;
10399;SDS011;10031;51.180;17.168;2023-03-01T02:19:14;79.67;;;33.13;;
10399;SDS011;10031;51.180;17.168;2023-03-01T02:24:21;69.10;;;30.87;;
10399;SDS011;10031;51.180;17.168;2023-03-01T02:26:53;74.67;;;31.90;;
10399;SDS011;10031;51.180;17.168;2023-03-01T02:29:20;77.47;;;33.00;;
10399;SDS011;10031;51.180;17.168;2023-03-01T02:31:47;82.17;;;34.57;;
10399;SDS011;10031;51.180;17.168;2023-03-01T02:34:23;75.30;;;34.57;;
10399;SDS011;10031;51.180;17.168;2023-03-01T02:39:22;84.40;;;36.83;;
10399;SDS011;10031;51.180;17.168;2023-03-01T02:41:50;79.13;;;36.17;;
10399;SDS011;10031;51.180;17.168;2023-03-01T02:44:17;80.53;;;34.63;;
10399;SDS011;10031;51.180;17.168;2023-03-01T02:46:47;70.37;;;32.47;;
10399;SDS011;10031;51.180;17.168;2023-03-01T02:49:24;70.47;;;31.90;;
10399;SDS011;10031;51.180;17.168;2023-03-01T02:52:03;66.37;;;30.20;;
10399;SDS011;10031;51.180;17.168;2023-03-01T02:56:59;65.83;;;31.00;;
10399;SDS011;10031;51.180;17.168;2023-03-01T02:59:27;66.53;;;31.03;;
10399;SDS011;10031;51.180;17.168;2023-03-01T03:01:54;70.70;;;29.83;;
10399;SDS011;10031;51.180;17.168;2023-03-01T03:04:20;65.03;;;29.53;;
10399;SDS011;10031;51.180;17.168;2023-03-01T03:06:47;65.53;;;28.57;;
10399;SDS011;10031;51.180;17.168;2023-03-01T03:09:14;65.10;;;28.07;;
10399;SDS011;10031;51.180;17.168;2023-03-01T03:11:40;72.53;;;29.73;;
10399;SDS011;10031;51.180;17.168;2023-03-01T03:14:08;71.33;;;29.83;;
10399;SDS011;10031;51.180;17.168;2023-03-01T03:16:44;60.67;;;26.97;;
10399;SDS011;10031;51.180;17.168;2023-03-01T03:19:11;63.10;;;29.63;;
10399;SDS011;10031;51.180;17.168;2023-03-01T03:21:37;66.73;;;28.97;;
10399;SDS011;10031;51.180;17.168;2023-03-01T03:24:03;58.63;;;27.70;;
10399;SDS011;10031;51.180;17.168;2023-03-01T03:26:29;71.37;;;30.67;;
10399;SDS011;10031;51.180;17.168;2023-03-01T03:28:56;65.47;;;28.33;;
10399;SDS011;10031;51.180;17.168;2023-03-01T03:31:22;63.60;;;28.30;;
10399;SDS011;10031;51.180;17.168;2023-03-01T03:33:48;55.23;;;26.60;;
10399;SDS011;10031;51.180;17.168;2023-03-01T03:36:18;61.63;;;28.43;;
10399;SDS011;10031;51.180;17.168;2023-03-01T03:38:44;63.97;;;27.97;;
10399;SDS011;10031;51.180;17.168;2023-03-01T03:41:11;62.60;;;28.20;;
10399;SDS011;10031;51.180;17.168;2023-03-01T03:43:38;61.60;;;28.67;;
10399;SDS011;10031;51.180;17.168;2023-03-01T03:46:04;64.00;;;27.77;;
10399;SDS011;10031;51.180;17.168;2023-03-01T03:48:32;60.03;;;27.37;;
10399;SDS011;10031;51.180;17.168;2023-03-01T03:50:58;62.53;;;27.50;;
10399;SDS011;10031;51.180;17.168;2023-03-01T03:53:25;59.70;;;27.73;;
10399;SDS011;10031;51.180;17.168;2023-03-01T03:55:52;59.50;;;27.43;;
10399;SDS011;10031;51.180;17.168;2023-03-01T03:58:19;64.33;;;27.43;;
10399;SDS011;10031;51.180;17.168;2023-03-01T04:00:46;61.93;;;27.67;;
10399;SDS011;10031;51.180;17.168;2023-03-01T04:03:13;62.13;;;28.20;;
10399;SDS011;10031;51.180;17.168;2023-03-01T04:05:40;57.00;;;27.00;;
10399;SDS011;10031;51.180;17.168;2023-03-01T04:08:06;59.97;;;25.20;;
10399;SDS011;10031;51.180;17.168;2023-03-01T04:10:36;52.77;;;24.57;;
10399;SDS011;10031;51.180;17.168;2023-03-01T04:13:03;62.97;;;29.20;;
10399;SDS011;10031;51.180;17.168;2023-03-01T04:15:29;63.77;;;29.17;;
10399;SDS011;10031;51.180;17.168;2023-03-01T04:17:57;64.83;;;29.80;;
10399;SDS011;10031;51.180;17.168;2023-03-01T04:20:26;64.03;;;29.67;;
10399;SDS011;10031;51.180;17.168;2023-03-01T04:23:03;61.20;;;28.90;;
10399;SDS011;10031;51.180;17.168;2023-03-01T04:25:46;63.93;;;28.27;;
10399;SDS011;10031;51.180;17.168;2023-03-01T04:28:23;60.17;;;27.93;;
10399;SDS011;10031;51.180;17.168;2023-03-01T04:30:50;66.97;;;29.10;;
10399;SDS011;10031;51.180;17.168;2023-03-01T04:33:16;65.17;;;29.17;;
10399;SDS011;10031;51.180;17.168;2023-03-01T04:35:42;63.50;;;28.93;;
10399;SDS011;10031;51.180;17.168;2023-03-01T04:38:09;65.10;;;28.23;;
10399;SDS011;10031;51.180;17.168;2023-03-01T04:40:35;57.90;;;27.20;;
10399;SDS011;10031;51.180;17.168;2023-03-01T04:43:02;63.60;;;28.90;;
10399;SDS011;10031;51.180;17.168;2023-03-01T04:45:28;61.13;;;28.00;;
10399;SDS011;10031;51.180;17.168;2023-03-01T04:47:54;65.87;;;28.87;;
10399;SDS011;10031;51.180;17.168;2023-03-01T04:50:23;60.67;;;27.73;;
10399;SDS011;10031;51.180;17.168;2023-03-01T04:52:50;66.00;;;30.07;;
10399;SDS011;10031;51.180;17.168;2023-03-01T04:55:17;70.90;;;29.47;;
10399;SDS011;10031;51.180;17.168;2023-03-01T04:57:43;66.67;;;30.30;;
10399;SDS011;10031;51.180;17.168;2023-03-01T05:00:13;80.33;;;33.40;;
10399;SDS011;10031;51.180;17.168;2023-03-01T05:02:46;69.73;;;30.83;;
10399;SDS011;10031;51.180;17.168;2023-03-01T05:05:13;76.03;;;31.23;;
10399;SDS011;10031;51.180;17.168;2023-03-01T05:07:39;71.77;;;31.97;;
10399;SDS011;10031;51.180;17.168;2023-03-01T05:10:05;83.70;;;31.70;;
10399;SDS011;10031;51.180;17.168;2023-03-01T05:12:31;80.20;;;31.63;;
10399;SDS011;10031;51.180;17.168;2023-03-01T05:14:57;87.03;;;32.93;;
10399;SDS011;10031;51.180;17.168;2023-03-01T05:17:23;87.57;;;32.53;;
10399;SDS011;10031;51.180;17.168;2023-03-01T05:19:49;78.17;;;29.87;;
10399;SDS011;10031;51.180;17.168;2023-03-01T05:22:15;65.43;;;28.13;;
10399;SDS011;10031;51.180;17.168;2023-03-01T05:24:42;79.33;;;31.33;;
10399;SDS011;10031;51.180;17.168;2023-03-01T05:27:08;105.20;;;35.93;;
10399;SDS011;10031;51.180;17.168;2023-03-01T05:29:34;80.50;;;32.57;;
10399;SDS011;10031;51.180;17.168;2023-03-01T05:32:00;97.17;;;34.13;;
10399;SDS011;10031;51.180;17.168;2023-03-01T05:34:34;85.07;;;33.03;;
10399;SDS011;10031;51.180;17.168;2023-03-01T05:37:00;84.90;;;34.40;;
10399;SDS011;10031;51.180;17.168;2023-03-01T05:39:27;88.47;;;32.30;;
10399;SDS011;10031;51.180;17.168;2023-03-01T05:41:57;104.47;;;34.57;;
10399;SDS011;10031;51.180;17.168;2023-03-01T05:44:24;109.67;;;36.73;;
10399;SDS011;10031;51.180;17.168;2023-03-01T05:46:50;116.57;;;37.07;;
10399;SDS011;10031;51.180;17.168;2023-03-01T05:49:16;119.97;;;39.50;;
10399;SDS011;10031;51.180;17.168;2023-03-01T05:51:43;111.40;;;39.07;;
10399;SDS011;10031;51.180;17.168;2023-03-01T05:54:09;102.93;;;35.37;;
10399;SDS011;10031;51.180;17.168;2023-03-01T05:56:36;88.53;;;33.37;;
10399;SDS011;10031;51.180;17.168;2023-03-01T05:59:02;83.53;;;32.27;;
10399;SDS011;10031;51.180;17.168;2023-03-01T06:01:30;94.17;;;33.47;;
10399;SDS011;10031;51.180;17.168;2023-03-01T06:03:56;92.53;;;34.53;;
10399;SDS011;10031;51.180;17.168;2023-03-01T06:06:22;94.90;;;35.43;;
10399;SDS011;10031;51.180;17.168;2023-03-01T06:08:49;99.43;;;35.53;;
10399;SDS011;10031;51.180;17.168;2023-03-01T06:11:15;115.17;;;39.90;;
10399;SDS011;10031;51.180;17.168;2023-03-01T06:13:42;97.23;;;37.30;;
10399;SDS011;10031;51.180;17.168;2023-03-01T06:16:08;114.17;;;40.37;;
10399;SDS011;10031;51.180;17.168;2023-03-01T06:18:34;114.47;;;41.00;;
10399;SDS011;10031;51.180;17.168;2023-03-01T06:21:00;101.60;;;40.63;;
10399;SDS011;10031;51.180;17.168;2023-03-01T06:23:26;113.20;;;40.10;;
10399;SDS011;10031;51.180;17.168;2023-03-01T06:25:52;105.53;;;40.30;;
10399;SDS011;10031;51.180;17.168;2023-03-01T06:28:19;109.07;;;41.20;;
10399;SDS011;10031;51.180;17.168;2023-03-01T06:30:45;119.93;;;44.87;;
10399;SDS011;10031;51.180;17.168;2023-03-01T06:33:11;103.30;;;42.87;;
10399;SDS011;10031;51.180;17.168;2023-03-01T06:35:37;104.03;;;40.20;;
10399;SDS011;10031;51.180;17.168;2023-03-01T06:38:03;97.30;;;40.43;;
10399;SDS011;10031;51.180;17.168;2023-03-01T06:40:30;107.23;;;43.40;;
10399;SDS011;10031;51.180;17.168;2023-03-01T06:42:56;111.97;;;46.97;;
10399;SDS011;10031;51.180;17.168;2023-03-01T06:45:23;108.73;;;46.33;;
10399;SDS011;10031;51.180;17.168;2023-03-01T06:47:49;121.90;;;50.67;;
10399;SDS011;10031;51.180;17.168;2023-03-01T06:50:33;106.87;;;47.77;;
10399;SDS011;10031;51.180;17.168;2023-03-01T06:55:55;134.27;;;56.90;;
10399;SDS011;10031;51.180;17.168;2023-03-01T06:58:22;145.60;;;59.03;;
10399;SDS011;10031;51.180;17.168;2023-03-01T07:00:48;128.60;;;57.30;;
10399;SDS011;10031;51.180;17.168;2023-03-01T07:03:14;164.57;;;67.60;;
10399;SDS011;10031;51.180;17.168;2023-03-01T07:05:40;159.80;;;72.53;;
10399;SDS011;10031;51.180;17.168;2023-03-01T07:08:07;134.77;;;65.63;;
10399;SDS011;10031;51.180;17.168;2023-03-01T07:10:33;131.13;;;61.03;;
10399;SDS011;10031;51.180;17.168;2023-03-01T07:12:59;110.37;;;56.97;;
10399;SDS011;10031;51.180;17.168;2023-03-01T07:15:25;116.17;;;58.13;;
10399;SDS011;10031;51.180;17.168;2023-03-01T07:17:52;107.83;;;53.13;;
10399;SDS011;10031;51.180;17.168;2023-03-01T07:20:18;95.83;;;49.80;;
10399;SDS011;10031;51.180;17.168;2023-03-01T07:22:49;88.03;;;45.60;;
10399;SDS011;10031;51.180;17.168;2023-03-01T07:25:18;71.37;;;40.67;;
10399;SDS011;10031;51.180;17.168;2023-03-01T07:27:50;70.53;;;38.53;;
10399;SDS011;10031;51.180;17.168;2023-03-01T07:36:31;64.83;;;36.10;;
10399;SDS011;10031;51.180;17.168;2023-03-01T07:38:58;63.17;;;35.33;;
10399;SDS011;10031;51.180;17.168;2023-03-01T07:41:27;55.07;;;33.10;;
10399;SDS011;10031;51.180;17.168;2023-03-01T07:43:55;55.87;;;34.10;;
10399;SDS011;10031;51.180;17.168;2023-03-01T07:46:24;59.40;;;33.50;;
10399;SDS011;10031;51.180;17.168;2023-03-01T07:48:53;54.83;;;33.17;;
10399;SDS011;10031;51.180;17.168;2023-03-01T07:51:23;52.53;;;32.33;;
10399;SDS011;10031;51.180;17.168;2023-03-01T07:53:49;51.17;;;33.90;;
10399;SDS011;10031;51.180;17.168;2023-03-01T07:56:15;54.67;;;32.67;;
10399;SDS011;10031;51.180;17.168;2023-03-01T07:58:43;48.40;;;31.30;;
10399;SDS011;10031;51.180;17.168;2023-03-01T08:01:17;54.83;;;32.83;;
10399;SDS011;10031;51.180;17.168;2023-03-01T08:04:00;57.57;;;33.93;;
10399;SDS011;10031;51.180;17.168;2023-03-01T08:06:29;51.40;;;29.50;;
10399;SDS011;10031;51.180;17.168;2023-03-01T08:08:55;47.60;;;30.07;;
10399;SDS011;10031;51.180;17.168;2023-03-01T08:11:24;46.40;;;28.70;;
10399;SDS011;10031;51.180;17.168;2023-03-01T08:19:52;46.50;;;27.37;;
10399;SDS011;10031;51.180;17.168;2023-03-01T08:22:18;47.60;;;30.03;;
10399;SDS011;10031;51.180;17.168;2023-03-01T08:24:45;48.87;;;28.47;;
10399;SDS011;10031;51.180;17.168;2023-03-01T08:27:19;49.63;;;28.10;;
10399;SDS011;10031;51.180;17.168;2023-03-01T08:29:45;48.80;;;27.93;;
10399;SDS011;10031;51.180;17.168;2023-03-01T08:35:15;54.93;;;28.60;;
10399;SDS011;10031;51.180;17.168;2023-03-01T08:37:41;48.33;;;28.10;;
10399;SDS011;10031;51.180;17.168;2023-03-01T08:40:07;47.60;;;26.13;;
10399;SDS011;10031;51.180;17.168;2023-03-01T08:42:35;45.10;;;25.97;;
10399;SDS011;10031;51.180;17.168;2023-03-01T08:45:02;51.07;;;24.13;;
10399;SDS011;10031;51.180;17.168;2023-03-01T08:47:28;43.97;;;24.03;;
10399;SDS011;10031;51.180;17.168;2023-03-01T08:49:54;41.17;;;23.13;;
10399;SDS011;10031;51.180;17.168;2023-03-01T08:52:24;50.20;;;26.10;;
10399;SDS011;10031;51.180;17.168;2023-03-01T08:54:51;46.50;;;24.00;;
10399;SDS011;10031;51.180;17.168;2023-03-01T08:57:17;52.20;;;27.37;;
10399;SDS011;10031;51.180;17.168;2023-03-01T08:59:43;57.57;;;30.83;;
10399;SDS011;10031;51.180;17.168;2023-03-01T09:02:13;48.87;;;28.13;;
10399;SDS011;10031;51.180;17.168;2023-03-01T09:04:40;47.77;;;26.13;;
10399;SDS011;10031;51.180;17.168;2023-03-01T09:07:06;51.80;;;26.87;;
10399;SDS011;10031;51.180;17.168;2023-03-01T09:09:33;48.57;;;27.17;;
10399;SDS011;10031;51.180;17.168;2023-03-01T09:12:01;48.53;;;25.80;;
10399;SDS011;10031;51.180;17.168;2023-03-01T09:14:30;48.33;;;26.37;;
10399;SDS011;10031;51.180;17.168;2023-03-01T09:16:57;47.63;;;26.10;;
10399;SDS011;10031;51.180;17.168;2023-03-01T09:19:26;47.20;;;26.67;;
10399;SDS011;10031;51.180;17.168;2023-03-01T09:21:52;48.77;;;25.40;;
10399;SDS011;10031;51.180;17.168;2023-03-01T09:24:27;43.60;;;25.60;;
10399;SDS011;10031;51.180;17.168;2023-03-01T09:26:56;44.93;;;25.93;;
10399;SDS011;10031;51.180;17.168;2023-03-01T09:29:23;45.73;;;26.17;;
10399;SDS011;10031;51.180;17.168;2023-03-01T09:31:52;46.03;;;25.30;;
10399;SDS011;10031;51.180;17.168;2023-03-01T09:34:26;41.93;;;23.33;;
10399;SDS011;10031;51.180;17.168;2023-03-01T09:37:21;38.20;;;22.93;;
10399;SDS011;10031;51.180;17.168;2023-03-01T09:42:56;35.33;;;21.70;;
10399;SDS011;10031;51.180;17.168;2023-03-01T09:46:03;38.57;;;22.60;;
10399;SDS011;10031;51.180;17.168;2023-03-01T10:05:21;37.23;;;20.63;;
10399;SDS011;10031;51.180;17.168;2023-03-01T10:11:17;36.87;;;20.83;;
10399;SDS011;10031;51.180;17.168;2023-03-01T10:13:52;37.60;;;19.93;;
10399;SDS011;10031;51.180;17.168;2023-03-01T10:16:34;41.43;;;22.40;;
10399;SDS011;10031;51.180;17.168;2023-03-01T10:19:14;37.53;;;21.07;;
10399;SDS011;10031;51.180;17.168;2023-03-01T10:21:46;37.23;;;21.10;;
10399;SDS011;10031;51.180;17.168;2023-03-01T10:24:36;40.10;;;22.90;;
10399;SDS011;10031;51.180;17.168;2023-03-01T10:27:23;38.07;;;21.70;;
10399;SDS011;10031;51.180;17.168;2023-03-01T10:30:02;38.93;;;21.57;;
10399;SDS011;10031;51.180;17.168;2023-03-01T10:32:56;32.27;;;16.10;;
10399;SDS011;10031;51.180;17.168;2023-03-01T10:35:40;33.97;;;19.97;;
10399;SDS011;10031;51.180;17.168;2023-03-01T10:38:13;32.30;;;18.70;;
10399;SDS011;10031;51.180;17.168;2023-03-01T10:40:54;31.93;;;18.63;;
10399;SDS011;10031;51.180;17.168;2023-03-01T10:43:22;29.73;;;17.60;;
10399;SDS011;10031;51.180;17.168;2023-03-01T10:45:51;22.67;;;10.57;;
10399;SDS011;10031;51.180;17.168;2023-03-01T10:48:19;34.47;;;18.27;;
10399;SDS011;10031;51.180;17.168;2023-03-01T10:53:29;25.07;;;15.53;;
10399;SDS011;10031;51.180;17.168;2023-03-01T10:56:13;27.33;;;16.77;;
10399;SDS011;10031;51.180;17.168;2023-03-01T11:06:25;27.57;;;16.20;;
10399;SDS011;10031;51.180;17.168;2023-03-01T11:08:51;28.43;;;16.53;;
10399;SDS011;10031;51.180;17.168;2023-03-01T11:11:23;25.40;;;14.17;;
10399;SDS011;10031;51.180;17.168;2023-03-01T11:16:42;24.80;;;14.80;;
10399;SDS011;10031;51.180;17.168;2023-03-01T11:29:42;18.77;;;10.53;;
10399;SDS011;10031;51.180;17.168;2023-03-01T11:34:50;13.27;;;8.60;;
10399;SDS011;10031;51.180;17.168;2023-03-01T11:37:30;16.33;;;9.50;;
10399;SDS011;10031;51.180;17.168;2023-03-01T11:43:14;14.07;;;6.97;;
10399;SDS011;10031;51.180;17.168;2023-03-01T11:57:51;16.50;;;9.77;;
10399;SDS011;10031;51.180;17.168;2023-03-01T12:08:54;21.43;;;10.80;;
10399;SDS011;10031;51.180;17.168;2023-03-01T12:19:07;18.27;;;11.47;;
10399;SDS011;10031;51.180;17.168;2023-03-01T12:21:50;22.60;;;12.20;;
10399;SDS011;10031;51.180;17.168;2023-03-01T12:42:31;17.03;;;11.57;;
10399;SDS011;10031;51.180;17.168;2023-03-01T12:47:40;23.07;;;14.77;;
10399;SDS011;10031;51.180;17.168;2023-03-01T12:50:18;19.60;;;12.00;;
10399;SDS011;10031;51.180;17.168;2023-03-01T12:52:50;17.17;;;11.53;;
10399;SDS011;10031;51.180;17.168;2023-03-01T12:55:39;20.37;;;12.80;;
10399;SDS011;10031;51.180;17.168;2023-03-01T13:05:56;21.63;;;13.33;;
10399;SDS011;10031;51.180;17.168;2023-03-01T13:08:31;26.10;;;14.07;;
10399;SDS011;10031;51.180;17.168;2023-03-01T13:11:03;25.40;;;14.07;;
10399;SDS011;10031;51.180;17.168;2023-03-01T13:13:31;23.20;;;14.33;;
10399;SDS011;10031;51.180;17.168;2023-03-01T13:15:57;21.13;;;13.60;;
10399;SDS011;10031;51.180;17.168;2023-03-01T13:18:49;23.13;;;14.70;;
10399;SDS011;10031;51.180;17.168;2023-03-01T13:21:19;20.80;;;13.53;;
10399;SDS011;10031;51.180;17.168;2023-03-01T13:29:49;20.63;;;12.27;;
10399;SDS011;10031;51.180;17.168;2023-03-01T13:32:20;21.40;;;13.43;;
10399;SDS011;10031;51.180;17.168;2023-03-01T13:34:48;21.33;;;13.60;;
10399;SDS011;10031;51.180;17.168;2023-03-01T13:37:21;22.60;;;13.10;;
10399;SDS011;10031;51.180;17.168;2023-03-01T13:39:48;20.60;;;13.00;;
10399;SDS011;10031;51.180;17.168;2023-03-01T13:44:53;18.13;;;12.80;;
10399;SDS011;10031;51.180;17.168;2023-03-01T13:47:20;23.70;;;14.80;;
10399;SDS011;10031;51.180;17.168;2023-03-01T13:57:48;17.17;;;11.53;;
10399;SDS011;10031;51.180;17.168;2023-03-01T14:05:29;20.57;;;12.57;;
10399;SDS011;10031;51.180;17.168;2023-03-01T14:07:56;21.43;;;13.83;;
10399;SDS011;10031;51.180;17.168;2023-03-01T14:10:22;20.47;;;12.60;;
10399;SDS011;10031;51.180;17.168;2023-03-01T14:13:01;20.67;;;12.47;;
10399;SDS011;10031;51.180;17.168;2023-03-01T14:15:48;22.30;;;12.43;;
10399;SDS011;10031;51.180;17.168;2023-03-01T14:20:45;21.77;;;13.30;;
10399;SDS011;10031;51.180;17.168;2023-03-01T14:23:21;19.50;;;11.97;;
10399;SDS011;10031;51.180;17.168;2023-03-01T14:25:48;19.37;;;12.50;;
10399;SDS011;10031;51.180;17.168;2023-03-01T14:28:24;22.07;;;13.47;;
10399;SDS011;10031;51.180;17.168;2023-03-01T14:30:55;22.40;;;13.00;;
10399;SDS011;10031;51.180;17.168;2023-03-01T14:35:55;21.27;;;12.90;;
10399;SDS011;10031;51.180;17.168;2023-03-01T14:38:29;22.40;;;13.13;;
10399;SDS011;10031;51.180;17.168;2023-03-01T14:41:00;19.60;;;11.97;;
10399;SDS011;10031;51.180;17.168;2023-03-01T14:43:27;18.27;;;11.67;;
10399;SDS011;10031;51.180;17.168;2023-03-01T14:45:54;18.00;;;11.63;;
10399;SDS011;10031;51.180;17.168;2023-03-01T14:48:21;22.53;;;11.80;;
10399;SDS011;10031;51.180;17.168;2023-03-01T14:50:47;18.10;;;12.00;;
10399;SDS011;10031;51.180;17.168;2023-03-01T14:53:21;19.67;;;11.67;;
10399;SDS011;10031;51.180;17.168;2023-03-01T14:55:50;17.67;;;11.27;;
10399;SDS011;10031;51.180;17.168;2023-03-01T14:58:19;19.50;;;10.87;;
10399;SDS011;10031;51.180;17.168;2023-03-01T15:00:48;17.40;;;11.03;;
10399;SDS011;10031;51.180;17.168;2023-03-01T15:03:18;20.33;;;11.63;;
10399;SDS011;10031;51.180;17.168;2023-03-01T15:05:45;21.70;;;11.93;;
10399;SDS011;10031;51.180;17.168;2023-03-01T15:08:19;18.47;;;12.20;;
10399;SDS011;10031;51.180;17.168;2023-03-01T15:10:59;19.80;;;11.63;;
10399;SDS011;10031;51.180;17.168;2023-03-01T15:13:28;21.83;;;12.07;;
10399;SDS011;10031;51.180;17.168;2023-03-01T15:16:07;19.23;;;13.03;;
10399;SDS011;10031;51.180;17.168;2023-03-01T15:18:34;20.10;;;12.33;;
10399;SDS011;10031;51.180;17.168;2023-03-01T15:21:06;20.63;;;12.03;;
10399;SDS011;10031;51.180;17.168;2023-03-01T15:23:32;21.43;;;12.73;;
10399;SDS011;10031;51.180;17.168;2023-03-01T15:28:55;25.03;;;15.40;;
10399;SDS011;10031;51.180;17.168;2023-03-01T15:31:36;28.07;;;15.43;;
10399;SDS011;10031;51.180;17.168;2023-03-01T15:34:22;24.40;;;15.60;;
10399;SDS011;10031;51.180;17.168;2023-03-01T15:37:33;24.83;;;15.00;;
10399;SDS011;10031;51.180;17.168;2023-03-01T15:39:41;29.87;;;16.07;;
10399;SDS011;10031;51.180;17.168;2023-03-01T15:42:10;29.53;;;16.17;;
10399;SDS011;10031;51.180;17.168;2023-03-01T15:44:40;27.83;;;16.07;;
10399;SDS011;10031;51.180;17.168;2023-03-01T15:47:28;30.37;;;16.13;;
10399;SDS011;10031;51.180;17.168;2023-03-01T15:50:05;24.83;;;15.03;;
10399;SDS011;10031;51.180;17.168;2023-03-01T15:52:34;24.93;;;15.20;;
10399;SDS011;10031;51.180;17.168;2023-03-01T15:55:05;26.20;;;15.97;;
10399;SDS011;10031;51.180;17.168;2023-03-01T15:57:32;30.53;;;16.60;;
10399;SDS011;10031;51.180;17.168;2023-03-01T16:00:14;25.47;;;15.03;;
10399;SDS011;10031;51.180;17.168;2023-03-01T16:02:44;27.63;;;15.37;;
10399;SDS011;10031;51.180;17.168;2023-03-01T16:05:22;27.83;;;16.20;;
10399;SDS011;10031;51.180;17.168;2023-03-01T16:07:54;23.97;;;15.27;;
10399;SDS011;10031;51.180;17.168;2023-03-01T16:10:23;27.83;;;16.03;;
10399;SDS011;10031;51.180;17.168;2023-03-01T16:12:50;26.77;;;15.07;;
10399;SDS011;10031;51.180;17.168;2023-03-01T16:15:23;27.47;;;16.03;;
10399;SDS011;10031;51.180;17.168;2023-03-01T16:17:53;25.10;;;15.50;;
10399;SDS011;10031;51.180;17.168;2023-03-01T16:20:26;28.97;;;16.00;;
10399;SDS011;10031;51.180;17.168;2023-03-01T16:22:52;26.50;;;15.73;;
10399;SDS011;10031;51.180;17.168;2023-03-01T16:25:20;30.90;;;17.10;;
10399;SDS011;10031;51.180;17.168;2023-03-01T16:27:47;29.53;;;16.67;;
10399;SDS011;10031;51.180;17.168;2023-03-01T16:30:13;27.93;;;15.80;;
10399;SDS011;10031;51.180;17.168;2023-03-01T16:32:40;27.80;;;15.67;;
10399;SDS011;10031;51.180;17.168;2023-03-01T16:35:07;28.70;;;16.23;;
10399;SDS011;10031;51.180;17.168;2023-03-01T16:37:37;32.23;;;17.30;;
10399;SDS011;10031;51.180;17.168;2023-03-01T16:40:04;31.17;;;16.53;;
10399;SDS011;10031;51.180;17.168;2023-03-01T16:42:36;35.23;;;16.40;;
10399;SDS011;10031;51.180;17.168;2023-03-01T16:45:03;30.13;;;16.13;;
10399;SDS011;10031;51.180;17.168;2023-03-01T16:47:31;32.77;;;17.57;;
10399;SDS011;10031;51.180;17.168;2023-03-01T16:49:58;32.03;;;17.50;;
10399;SDS011;10031;51.180;17.168;2023-03-01T16:52:25;39.87;;;19.83;;
10399;SDS011;10031;51.180;17.168;2023-03-01T16:54:51;35.17;;;20.63;;
10399;SDS011;10031;51.180;17.168;2023-03-01T16:57:19;35.53;;;18.70;;
10399;SDS011;10031;51.180;17.168;2023-03-01T16:59:45;34.17;;;19.13;;
10399;SDS011;10031;51.180;17.168;2023-03-01T17:02:14;34.20;;;18.20;;
10399;SDS011;10031;51.180;17.168;2023-03-01T17:04:45;32.77;;;18.30;;
10399;SDS011;10031;51.180;17.168;2023-03-01T17:07:11;43.57;;;18.83;;
10399;SDS011;10031;51.180;17.168;2023-03-01T17:09:37;40.37;;;19.70;;
10399;SDS011;10031;51.180;17.168;2023-03-01T17:12:04;52.03;;;23.40;;
10399;SDS011;10031;51.180;17.168;2023-03-01T17:14:34;50.57;;;23.70;;
10399;SDS011;10031;51.180;17.168;2023-03-01T17:17:00;59.43;;;25.33;;
10399;SDS011;10031;51.180;17.168;2023-03-01T17:19:28;55.10;;;25.27;;
10399;SDS011;10031;51.180;17.168;2023-03-01T17:21:56;61.27;;;26.50;;
10399;SDS011;10031;51.180;17.168;2023-03-01T17:24:22;51.87;;;24.00;;